This is the latest recevied weather packets stored in our database for station/object EA1RCG-11. If no packets are shown the sender has not sent any weather packets the latest 10 day(s).
| Time | Temp. | Humidity | Pressure | Rain* | Wind** | Luminosity | Snow |
|---|---|---|---|---|---|---|---|
| 1787425618 | 22.78° C | 55% | 977.8 hPa | - | - | - | - |
| 1787423818 | 23.89° C | 53% | 977.7 hPa | - | - | - | - |
| 1787422018 | 25° C | 52% | 977.6 hPa | - | - | - | - |
| 1787420217 | 25.56° C | 51% | 977.6 hPa | - | - | - | - |
| 1787418417 | 26.67° C | 49% | 977.5 hPa | - | - | - | - |
| 1787416617 | 26.67° C | 50% | 977.1 hPa | - | - | - | - |
| 1787414817 | 27.22° C | 49% | 976.8 hPa | - | - | - | - |
| 1787411217 | 27.22° C | 49% | 976.4 hPa | - | - | - | - |
| 1787409417 | 27.78° C | 49% | 976.4 hPa | - | - | - | - |
| 1787407617 | 27.78° C | 49% | 976.7 hPa | - | - | - | - |
| 1787405817 | 27.22° C | 50% | 976.9 hPa | - | - | - | - |
| 1787404016 | 27.22° C | 51% | 977 hPa | - | - | - | - |
| 1787402216 | 27.22° C | 51% | 977.3 hPa | - | - | - | - |
| 1787400416 | 26.67° C | 53% | 977.5 hPa | - | - | - | - |
| 1787398616 | 27.78° C | 52% | 977.7 hPa | - | - | - | - |
| 1787396816 | 30° C | 51% | 977.9 hPa | - | - | - | - |
| 1787395016 | 52.78° C | 28% | 977.5 hPa | - | - | - | - |
| 1787393216 | 56.67° C | 26% | 977.9 hPa | - | - | - | - |
| 1787391416 | 55.56° C | 26% | 978.3 hPa | - | - | - | - |
| 1787389616 | 54.44° C | 27% | 978.3 hPa | - | - | - | - |
| 1787387816 | 50.56° C | 30% | 978.9 hPa | - | - | - | - |
| 1787386015 | 50° C | 29% | 979.2 hPa | - | - | - | - |
| 1787384215 | 42.22° C | 33% | 979.8 hPa | - | - | - | - |
| 1787382415 | 32.22° C | 40% | 980.6 hPa | - | - | - | - |
| 1787380615 | 15.56° C | 62% | 980.7 hPa | - | - | - | - |
* Rain since midnight (hover to see other rain measurements)
** Current wind speed in m/s (hover to see current wind gust speed)